• Join FlightAware (Why Join?)
  • Login
  • US Flag 
02:17AM EDT


 

Airport Tracker/Info


-or-


 

Live Flight TrackerFlight Track Log ✈ TAM3899 ✈ 01-Sep-2013 ✈ SBSR / SJP - SBSP / CGH

Flight Track Log - Related Links

Times and Time Zones

All times are in EDT time to prevent confusion due to time zone crossing. See the TAM3899 flight status page for this flight to view local times or setup timezone preferences in your user account.

Time Position Orientation Groundspeed Altitude Reporting Facility
EDT Latitude Longitude Course Direction KTS MPH feet Rate Location/Type
08:02PM -21.8426 -48.4199 138° Southeast  Level Estimated
08:03PM -21.9065 -48.3578 138° Southeast  Level Estimated
08:04PM -21.9704 -48.2956 138° Southeast  Level Estimated
08:05PM -22.0343 -48.2333 138° Southeast  Level Estimated
08:06PM -22.0982 -48.1710 138° Southeast  Level Estimated
08:07PM -22.1620 -48.1087 138° Southeast  Level Estimated
08:08PM -22.2258 -48.0463 138° Southeast  Level Estimated
08:09PM -22.2896 -47.9838 138° Southeast  Level Estimated
08:10PM -22.3534 -47.9213 138° Southeast  Level Estimated
08:11PM -22.4171 -47.8587 138° Southeast  Level Estimated
08:12PM -22.4808 -47.7961 138° Southeast  Level Estimated
08:13PM -22.5445 -47.7334 138° Southeast  Level Estimated
08:14PM -22.6082 -47.6706 138° Southeast  Level Estimated
08:15PM -22.6719 -47.6078 138° Southeast  Level Estimated
08:16PM -22.7355 -47.5450 138° Southeast  Level Estimated
08:17PM -22.7991 -47.4820 138° Southeast  Level Estimated
08:18PM -22.8626 -47.4190 138° Southeast  Level Estimated
08:19PM -22.9262 -47.3560 138° Southeast  Level Estimated
08:20PM -22.9897 -47.2929 138° Southeast  Level Estimated
08:21PM -23.0532 -47.2297 138° Southeast  Level Estimated
08:22PM -23.1167 -47.1665 138° Southeast  Level Estimated
08:23PM -23.1801 -47.1032 137° Southeast  Level Estimated
08:24PM -23.2435 -47.0399 137° Southeast  Level Estimated
08:25PM -23.3069 -46.9765 137° Southeast  Level Estimated
08:26PM -23.3703 -46.9130 137° Southeast  Level Estimated
08:27PM -23.4336 -46.8495 137° Southeast  Level Estimated
08:28PM -23.4970 -46.7859 137° Southeast  Level Estimated
08:29PM -23.5603 -46.7223 137° Southeast  Level Estimated
08:30PM -23.6235 -46.6586 137° Southeast  Level Estimated
08:31PM -23.6267 -46.6554 137° Southeast  Level Estimated
08:32PM -23.6267 -46.6554 114° Southeast  Level Estimated
08:33PM -23.6267 -46.6554 114° Southeast  Level Estimated
08:34PM -23.6267 -46.6554 114° Southeast  Level Estimated
08:35PM -23.6267 -46.6554 114° Southeast  Level Estimated
08:36PM -23.6267 -46.6554 114° Southeast  Level Estimated
08:37PM -23.6267 -46.6554 114° Southeast  Level Estimated
08:38PM -23.6267 -46.6554 114° Southeast  Level Estimated
08:39PM -23.6267 -46.6554 114° Southeast  Level Estimated
08:40PM -23.6267 -46.6554 114° Southeast  Level Estimated
08:41PM -23.6267 -46.6554 114° Southeast  Level Estimated
08:42PM -23.6267 -46.6554 114° Southeast  Level Estimated
08:43PM -23.6267 -46.6554 114° Southeast  Level Estimated
08:44PM -23.6267 -46.6554 114° Southeast  Level Estimated
08:45PM -23.6267 -46.6554 114° Southeast  Level Estimated
08:46PM -23.6267 -46.6554 114° Southeast  Level Estimated